Airfield :
LOGIN :

Register | Disclaimer

   EN    FR    IT 

 










Legend :    VFR   Marginal VFR   IFR   Intensive IFR   Very Intensive IFR
Visi :
Ceiling :
>= 8 km
>= 3000ft
5 to 8 km
1000 to 3000 ft
1500m to 5 km
500 to 1000 ft
800 to 1500m
200 to 500 ft
< 800m
< 200 ft
Symbols :   Thunderstorms  Fog  Heavy snow  Heavy precipitations  Wind > 20 kt
SIGMETs :     Misc.  Thunderstorms  Icing  Turbulence  Mountain Waves  Volcanic Ashes







- Airport Elevation : 479 ft
- IATA code : KEV


EFHA - Halli

CURRENT METAR :
  • 150620Z AUTO VRB03KT 6000 OVC004 M08/M09 Q1036

EXPIRED METARs :
  • 150550Z AUTO VRB03KT 8000 OVC004 M08/M09 Q1036
  • 150520Z AUTO VRB03KT 230V360 8000 OVC004 M08/M09 Q1036
  • 150450Z AUTO VRB03KT 150V290 8000 OVC004 M08/M09 Q1036
  • 150420Z AUTO VRB02KT 9999 OVC003 M08/M09 Q1035
  • 150350Z AUTO 24004KT 210V280 9999 OVC003 M08/M08 Q1035
  • 150320Z AUTO 28004KT 240V310 9999 OVC004 M08/M08 Q1035

Expired Forecast.
No reported NOTAMs for that airfield.



MET'MAP, your aeronautical weather chart ! - Copyright ORBIFLY December 2007 - Disclaimer

ORBIFLY MET'MAP TEAM :

Programming & Development : Alexandra Zaïnal
Concept & Development : Baudouin d'Aumeries
Co-Development & Prog : Marc-Olivier Méhu
Technical & hardware support : Manuel Goepfert

Contact : metmap@orbifly.com




SOURCES & CREDITS :

   NOAA